createdAt,value
2017-08-19T00:00:03.954Z,26.80
2017-08-19T00:02:34.566Z,27.00
2017-08-19T00:05:05.120Z,27.00
2017-08-19T00:07:35.507Z,27.10
2017-08-19T00:10:06.052Z,27.20
2017-08-19T00:12:37.282Z,27.30
2017-08-19T00:15:07.612Z,27.30
2017-08-19T00:17:37.896Z,27.20
2017-08-19T00:20:08.414Z,27.30
2017-08-19T00:22:38.885Z,27.40
2017-08-19T00:25:09.304Z,27.40
2017-08-19T00:27:39.711Z,27.50
2017-08-19T00:30:10.176Z,27.60
2017-08-19T00:32:41.072Z,27.80
2017-08-19T00:35:11.538Z,27.90
2017-08-19T00:37:41.810Z,28.00
2017-08-19T00:40:12.467Z,28.30
2017-08-19T00:42:42.787Z,28.40
2017-08-19T00:45:13.147Z,28.50
2017-08-19T00:47:43.664Z,28.80
2017-08-19T00:50:14.072Z,28.90
2017-08-19T00:52:44.590Z,29.00
2017-08-19T00:55:15.253Z,29.20
2017-08-19T00:57:45.661Z,29.30
2017-08-19T01:00:16.297Z,29.50
2017-08-19T01:02:46.475Z,29.70
2017-08-19T01:05:16.912Z,29.90
2017-08-19T01:07:47.204Z,30.00
2017-08-19T01:10:18.672Z,30.00
2017-08-19T01:12:49.110Z,30.10
2017-08-19T01:15:19.692Z,30.20
2017-08-19T01:17:50.010Z,30.30
2017-08-19T01:20:20.531Z,30.30
2017-08-19T01:22:50.951Z,30.50
2017-08-19T01:25:32.995Z,30.80
2017-08-19T01:28:03.528Z,30.80
2017-08-19T01:30:33.966Z,31.00
2017-08-19T01:33:04.878Z,31.00
2017-08-19T01:35:35.370Z,31.10
2017-08-19T01:38:05.918Z,31.10
2017-08-19T01:40:37.182Z,31.10
2017-08-19T01:43:07.595Z,31.10
2017-08-19T01:45:38.151Z,31.10
2017-08-19T01:48:08.544Z,31.10
2017-08-19T01:50:39.571Z,31.90
2017-08-19T01:53:10.150Z,31.90
2017-08-19T01:55:40.627Z,32.60
2017-08-19T01:58:11.294Z,33.00
2017-08-19T02:00:41.788Z,32.90
2017-08-19T02:03:12.172Z,33.10
2017-08-19T02:05:42.486Z,33.40
2017-08-19T02:08:12.924Z,33.20
2017-08-19T02:10:43.116Z,33.00
2017-08-19T02:13:13.558Z,32.90
2017-08-19T02:15:44.022Z,32.90
2017-08-19T02:18:14.575Z,32.90
2017-08-19T02:20:45.164Z,32.80
2017-08-19T02:23:15.800Z,32.70
2017-08-19T02:25:46.157Z,32.70
2017-08-19T02:28:16.540Z,32.50
2017-08-19T02:30:47.806Z,32.10
2017-08-19T02:33:18.915Z,32.10
2017-08-19T02:35:49.960Z,32.00
2017-08-19T02:38:21.272Z,31.80
2017-08-19T02:40:51.672Z,31.80
2017-08-19T02:43:22.193Z,32.00
2017-08-19T02:45:52.604Z,32.20
2017-08-19T02:48:23.738Z,32.30
2017-08-19T02:50:55.350Z,32.40
2017-08-19T02:53:25.951Z,32.40
2017-08-19T02:55:56.837Z,32.50
2017-08-19T02:58:27.350Z,32.50
2017-08-19T03:00:57.865Z,32.70
2017-08-19T03:03:28.243Z,32.80
2017-08-19T03:05:58.750Z,32.90
2017-08-19T03:08:29.352Z,33.10
2017-08-19T03:10:59.980Z,33.40
2017-08-19T03:13:30.611Z,33.50
2017-08-19T03:16:01.248Z,33.50
2017-08-19T03:18:31.886Z,33.50
2017-08-19T03:21:02.319Z,33.70
2017-08-19T03:23:32.870Z,33.70
2017-08-19T03:26:03.358Z,33.80
2017-08-19T03:28:33.787Z,33.80
2017-08-19T03:31:04.277Z,33.90
2017-08-19T03:33:35.083Z,34.00
2017-08-19T03:36:05.606Z,34.20
2017-08-19T03:38:35.996Z,34.30
2017-08-19T03:41:07.279Z,33.70
2017-08-19T03:43:37.740Z,33.70
2017-08-19T03:46:08.256Z,33.70
2017-08-19T03:48:38.752Z,33.70
2017-08-19T03:51:09.361Z,33.60
2017-08-19T03:53:40.547Z,33.70
2017-08-19T03:56:11.001Z,33.70
2017-08-19T03:58:41.469Z,34.10
2017-08-19T04:01:12.563Z,34.50
2017-08-19T04:03:43.079Z,34.50
2017-08-19T04:06:13.578Z,34.70
2017-08-19T04:08:44.127Z,34.60
2017-08-19T04:11:14.612Z,34.50
2017-08-19T04:13:44.924Z,34.30
2017-08-19T04:16:15.058Z,34.20
2017-08-19T04:18:45.605Z,34.20
2017-08-19T04:21:15.996Z,34.10
2017-08-19T04:23:46.347Z,34.10
2017-08-19T04:26:16.584Z,34.00
2017-08-19T04:28:46.884Z,33.90
2017-08-19T04:31:17.336Z,33.70
2017-08-19T04:33:48.196Z,33.70
2017-08-19T04:36:19.639Z,33.70
2017-08-19T04:38:50.097Z,33.70
2017-08-19T04:41:21.191Z,33.60
2017-08-19T04:43:52.363Z,33.70
2017-08-19T04:46:24.327Z,34.20
2017-08-19T04:48:55.363Z,34.20
2017-08-19T04:51:26.567Z,34.40
2017-08-19T04:53:57.702Z,34.80
2017-08-19T04:56:28.862Z,34.90
2017-08-19T04:59:00.144Z,35.10
2017-08-19T05:01:31.451Z,35.20
2017-08-19T05:04:02.478Z,35.20
2017-08-19T05:06:33.617Z,34.90
2017-08-19T05:09:04.797Z,35.10
2017-08-19T05:11:35.270Z,35.50
2017-08-19T05:14:06.449Z,36.00
2017-08-19T05:16:36.855Z,36.00
2017-08-19T05:19:07.421Z,36.00
2017-08-19T05:21:38.036Z,35.50
2017-08-19T05:24:08.455Z,35.10
2017-08-19T05:26:38.948Z,34.90
2017-08-19T05:29:09.502Z,34.90
2017-08-19T05:31:39.878Z,35.00
2017-08-19T05:34:10.385Z,35.30
2017-08-19T05:36:40.783Z,35.60
2017-08-19T05:39:12.156Z,35.50
2017-08-19T05:41:42.543Z,35.50
2017-08-19T05:44:12.793Z,35.70
2017-08-19T05:46:44.052Z,35.70
2017-08-19T05:49:14.489Z,35.70
2017-08-19T05:51:45.025Z,35.60
2017-08-19T05:54:15.567Z,35.60
2017-08-19T05:56:46.105Z,35.50
2017-08-19T05:59:16.594Z,35.70
2017-08-19T06:01:47.038Z,35.60
2017-08-19T06:04:17.523Z,35.80
2017-08-19T06:06:47.779Z,35.70
2017-08-19T06:09:18.216Z,35.80
2017-08-19T06:11:48.804Z,35.90
2017-08-19T06:14:19.290Z,35.90
2017-08-19T06:16:49.851Z,35.80
2017-08-19T06:19:20.391Z,35.70
2017-08-19T06:21:50.882Z,35.70
2017-08-19T06:24:21.311Z,35.50
2017-08-19T06:26:51.839Z,35.40
2017-08-19T06:29:22.331Z,35.20
2017-08-19T06:31:52.844Z,35.40
2017-08-19T06:34:23.616Z,35.50
2017-08-19T06:36:54.212Z,35.40
2017-08-19T06:39:24.753Z,35.40
2017-08-19T06:41:55.338Z,35.20
2017-08-19T06:44:26.072Z,35.20
2017-08-19T06:46:56.429Z,35.20
2017-08-19T06:49:26.988Z,35.20
2017-08-19T06:51:57.420Z,35.10
2017-08-19T06:54:28.519Z,35.00
2017-08-19T06:56:58.926Z,35.00
2017-08-19T06:59:29.453Z,35.00
2017-08-19T07:01:59.876Z,34.80
2017-08-19T07:04:30.480Z,34.70
2017-08-19T07:07:01.079Z,34.70
2017-08-19T07:09:31.483Z,34.60
2017-08-19T07:12:02.121Z,34.50
2017-08-19T07:14:32.457Z,34.30
2017-08-19T07:17:02.960Z,34.40
2017-08-19T07:19:33.492Z,34.50
2017-08-19T07:22:03.987Z,34.40
2017-08-19T07:24:34.692Z,34.50
2017-08-19T07:27:05.155Z,34.30
2017-08-19T07:29:36.250Z,34.60
2017-08-19T07:32:06.727Z,34.60
2017-08-19T07:34:40.429Z,34.80
2017-08-19T07:37:14.025Z,35.50
2017-08-19T07:39:44.572Z,35.50
2017-08-19T07:42:18.647Z,36.00
2017-08-19T07:44:53.558Z,36.00
2017-08-19T07:47:25.196Z,36.00
2017-08-19T07:49:58.846Z,36.20
2017-08-19T07:52:31.995Z,36.20
2017-08-19T07:55:06.099Z,36.20
2017-08-19T07:57:37.349Z,35.80
2017-08-19T08:00:07.815Z,35.70
2017-08-19T08:02:38.212Z,35.70
2017-08-19T08:05:08.670Z,35.70
2017-08-19T08:07:39.036Z,35.60
2017-08-19T08:10:09.531Z,35.60
2017-08-19T08:12:40.072Z,35.50
2017-08-19T08:15:10.682Z,35.30
2017-08-19T08:17:41.162Z,35.20
2017-08-19T08:20:11.435Z,35.20
2017-08-19T08:22:41.884Z,35.20
2017-08-19T08:25:12.415Z,35.20
2017-08-19T08:27:42.598Z,34.90
2017-08-19T08:30:12.936Z,34.70
2017-08-19T08:32:43.316Z,34.50
2017-08-19T08:35:14.147Z,34.60
2017-08-19T08:37:44.718Z,34.80
2017-08-19T08:40:15.986Z,35.10
2017-08-19T08:42:46.371Z,35.10
2017-08-19T08:45:18.520Z,34.80
2017-08-19T08:47:48.767Z,34.70
2017-08-19T08:50:19.239Z,34.80
2017-08-19T08:52:49.543Z,34.90
2017-08-19T08:55:21.012Z,35.50
2017-08-19T08:57:51.645Z,35.50
2017-08-19T09:00:22.172Z,35.60
2017-08-19T09:02:52.609Z,35.40
2017-08-19T09:05:23.143Z,34.90
2017-08-19T09:07:53.675Z,34.50
2017-08-19T09:10:24.051Z,34.50
2017-08-19T09:12:54.524Z,34.50
2017-08-19T09:15:24.982Z,34.40
2017-08-19T09:17:55.360Z,34.20
2017-08-19T09:20:25.707Z,34.10
2017-08-19T09:22:56.301Z,33.90
2017-08-19T09:25:26.936Z,33.70
2017-08-19T09:27:58.171Z,33.50
2017-08-19T09:30:28.381Z,33.50
2017-08-19T09:32:58.810Z,33.30
2017-08-19T09:35:30.392Z,33.10
2017-08-19T09:38:01.586Z,33.00
2017-08-19T09:40:32.068Z,33.00
2017-08-19T09:43:02.703Z,32.90
2017-08-19T09:45:33.258Z,32.80
2017-08-19T09:48:03.785Z,32.90
2017-08-19T09:50:34.102Z,33.00
2017-08-19T09:53:05.700Z,33.00
2017-08-19T09:55:36.417Z,33.00
2017-08-19T09:58:06.718Z,32.90
2017-08-19T10:00:38.035Z,33.00
2017-08-19T10:03:08.642Z,33.00
2017-08-19T10:05:39.097Z,33.00
2017-08-19T10:08:14.922Z,33.00
2017-08-19T10:10:45.912Z,33.00
2017-08-19T10:13:16.400Z,32.90
2017-08-19T10:15:46.955Z,32.80
2017-08-19T10:18:17.307Z,32.80
2017-08-19T10:20:48.550Z,32.70
2017-08-19T10:23:19.724Z,32.50
2017-08-19T10:25:50.378Z,32.50
2017-08-19T10:28:20.766Z,32.50
2017-08-19T10:30:51.864Z,32.40
2017-08-19T10:33:22.260Z,32.40
2017-08-19T10:35:53.103Z,32.30
2017-08-19T10:38:24.756Z,32.30
2017-08-19T10:40:55.271Z,32.30
2017-08-19T10:43:25.871Z,32.30
2017-08-19T10:45:56.397Z,32.30
2017-08-19T10:48:26.993Z,32.30
2017-08-19T10:50:57.450Z,32.20
2017-08-19T10:53:28.117Z,32.20
2017-08-19T10:55:59.492Z,32.30
2017-08-19T10:58:30.076Z,32.30
2017-08-19T11:01:00.656Z,32.30
2017-08-19T11:03:31.246Z,32.40
2017-08-19T11:06:01.560Z,32.30
2017-08-19T11:08:31.921Z,32.30
2017-08-19T11:11:03.206Z,32.10
2017-08-19T11:13:33.618Z,32.10
2017-08-19T11:16:04.149Z,31.90
2017-08-19T11:18:34.654Z,31.90
2017-08-19T11:21:05.886Z,31.70
2017-08-19T11:23:36.286Z,31.60
2017-08-19T11:26:06.788Z,31.50
2017-08-19T11:28:37.436Z,31.50
2017-08-19T11:31:08.062Z,31.50
2017-08-19T11:33:38.698Z,31.50
2017-08-19T11:36:09.616Z,31.40
2017-08-19T11:38:40.271Z,31.30
2017-08-19T11:41:10.743Z,31.30
2017-08-19T11:43:41.099Z,31.30
2017-08-19T11:46:12.604Z,31.20
2017-08-19T11:48:43.201Z,31.20
2017-08-19T11:51:13.845Z,31.20
2017-08-19T11:53:44.467Z,31.10
2017-08-19T11:56:15.113Z,31.10
2017-08-19T11:58:45.754Z,31.00
2017-08-19T12:01:16.164Z,31.00
2017-08-19T12:03:46.587Z,30.90
2017-08-19T12:06:16.939Z,30.80
2017-08-19T12:08:47.403Z,30.80
2017-08-19T12:11:17.968Z,30.70
2017-08-19T12:13:48.634Z,30.70
2017-08-19T12:16:19.208Z,30.60
2017-08-19T12:18:49.583Z,30.50
2017-08-19T12:21:20.325Z,30.40
2017-08-19T12:23:50.821Z,30.40
2017-08-19T12:28:59.697Z,30.30
2017-08-19T12:31:30.296Z,30.20
2017-08-19T12:34:01.578Z,30.20
2017-08-19T12:36:32.103Z,30.20
2017-08-19T12:39:02.566Z,30.20
2017-08-19T12:41:32.848Z,30.20
2017-08-19T12:44:03.421Z,30.20
2017-08-19T12:46:33.809Z,30.10
2017-08-19T12:49:04.555Z,30.10
2017-08-19T12:51:34.810Z,30.10
2017-08-19T12:54:05.193Z,30.00
2017-08-19T12:56:35.592Z,30.00
2017-08-19T12:59:06.194Z,29.90
2017-08-19T13:01:36.647Z,29.90
2017-08-19T13:04:06.995Z,29.80
2017-08-19T13:06:38.579Z,29.70
2017-08-19T13:09:09.223Z,29.70
2017-08-19T13:11:39.927Z,29.70
2017-08-19T13:14:10.561Z,29.60
2017-08-19T13:16:41.010Z,29.50
2017-08-19T13:19:11.657Z,29.50
2017-08-19T13:21:42.339Z,29.50
2017-08-19T13:24:12.720Z,29.60
2017-08-19T13:26:43.421Z,29.60
2017-08-19T13:29:14.274Z,29.60
2017-08-19T13:31:44.697Z,29.60
2017-08-19T13:34:15.304Z,29.70
2017-08-19T13:36:47.022Z,29.70
2017-08-19T13:39:17.642Z,29.70
2017-08-19T13:41:48.332Z,29.70
2017-08-19T13:44:18.902Z,29.60
2017-08-19T13:46:49.387Z,29.50
2017-08-19T13:49:19.929Z,29.50
2017-08-19T13:51:51.781Z,29.40
2017-08-19T13:54:23.098Z,29.40
2017-08-19T13:56:53.765Z,29.40
2017-08-19T13:59:25.115Z,29.30
2017-08-19T14:01:56.398Z,29.30
2017-08-19T14:04:26.769Z,29.30
2017-08-19T14:06:57.334Z,29.30
2017-08-19T14:09:27.947Z,29.30
2017-08-19T14:11:58.592Z,29.20
2017-08-19T14:14:35.675Z,29.10
2017-08-19T14:17:06.998Z,29.10
2017-08-19T14:19:37.424Z,29.10
2017-08-19T14:22:07.981Z,29.10
2017-08-19T14:24:38.438Z,29.10
2017-08-19T14:27:08.947Z,29.20
2017-08-19T14:29:39.573Z,29.20
2017-08-19T14:32:10.676Z,29.10
2017-08-19T14:34:41.286Z,29.10
2017-08-19T14:37:12.016Z,28.90
2017-08-19T14:39:42.555Z,28.80
2017-08-19T14:42:13.184Z,28.70
2017-08-19T14:44:43.725Z,28.70
2017-08-19T14:47:14.326Z,28.70
2017-08-19T14:49:44.984Z,28.70
2017-08-19T14:52:15.415Z,28.70
2017-08-19T14:54:45.841Z,28.70
2017-08-19T14:57:16.359Z,28.60
2017-08-19T14:59:46.689Z,28.60
2017-08-19T15:02:17.169Z,28.50
2017-08-19T15:04:47.694Z,28.50
2017-08-19T15:07:17.991Z,28.50
2017-08-19T15:09:48.452Z,28.40
2017-08-19T15:12:18.826Z,28.40
2017-08-19T15:14:49.431Z,28.40
2017-08-19T15:17:20.242Z,28.30
2017-08-19T15:19:50.835Z,28.30
2017-08-19T15:22:21.444Z,28.40
2017-08-19T15:24:53.089Z,28.80
2017-08-19T15:27:23.519Z,28.70
2017-08-19T15:29:54.073Z,28.90
2017-08-19T15:32:24.311Z,29.00
2017-08-19T15:34:54.931Z,29.10
2017-08-19T15:37:25.850Z,29.20
2017-08-19T15:39:57.837Z,29.20
2017-08-19T15:42:28.480Z,29.20
2017-08-19T15:44:58.999Z,29.30
2017-08-19T15:47:29.746Z,29.30
2017-08-19T15:50:00.574Z,29.30
2017-08-19T15:52:31.112Z,29.30
2017-08-19T15:55:01.724Z,29.30
2017-08-19T15:57:32.915Z,29.30
2017-08-19T16:00:03.188Z,29.30
2017-08-19T16:02:34.559Z,29.40
2017-08-19T16:05:04.871Z,29.40
2017-08-19T16:07:36.031Z,29.40
2017-08-19T16:10:07.471Z,29.40
2017-08-19T16:12:41.273Z,29.40
2017-08-19T16:15:13.960Z,29.40
2017-08-19T16:17:46.125Z,29.40
2017-08-19T16:20:17.452Z,29.30
2017-08-19T16:22:47.785Z,29.30
2017-08-19T16:25:18.479Z,29.30
2017-08-19T16:27:48.797Z,29.30
2017-08-19T16:30:19.359Z,29.20
2017-08-19T16:32:49.648Z,29.20
2017-08-19T16:35:20.124Z,29.30
2017-08-19T16:37:50.972Z,29.30
2017-08-19T16:40:21.279Z,29.30
2017-08-19T16:42:51.599Z,29.30
2017-08-19T16:45:22.073Z,29.30
2017-08-19T16:47:53.112Z,29.20
2017-08-19T16:50:24.444Z,29.20
2017-08-19T16:52:54.826Z,29.20
2017-08-19T16:55:25.255Z,29.20
2017-08-19T16:57:55.727Z,29.20
2017-08-19T17:00:26.204Z,29.10
2017-08-19T17:02:56.688Z,29.10
2017-08-19T17:05:26.951Z,29.10
2017-08-19T17:07:58.140Z,29.00
2017-08-19T17:10:28.462Z,29.00
2017-08-19T17:12:58.859Z,29.00
2017-08-19T17:15:29.260Z,29.00
2017-08-19T17:18:00.544Z,28.90
2017-08-19T17:20:30.931Z,28.90
2017-08-19T17:23:02.219Z,28.90
2017-08-19T17:25:32.802Z,28.90
2017-08-19T17:28:03.311Z,28.90
2017-08-19T17:30:33.721Z,28.90
2017-08-19T17:33:04.327Z,28.90
2017-08-19T17:35:34.852Z,28.90
2017-08-19T17:38:05.931Z,28.90
2017-08-19T17:40:36.100Z,28.90
2017-08-19T17:43:07.141Z,28.60
2017-08-19T17:45:37.617Z,28.60
2017-08-19T17:48:08.149Z,28.40
2017-08-19T17:50:38.723Z,28.30
2017-08-19T17:53:09.124Z,28.30
2017-08-19T17:55:39.797Z,28.20
2017-08-19T17:58:10.313Z,28.30
2017-08-19T18:00:40.751Z,28.30
2017-08-19T18:03:11.238Z,28.40
2017-08-19T18:08:18.597Z,28.70
2017-08-19T18:10:50.048Z,28.80
2017-08-19T18:13:21.355Z,28.80
2017-08-19T18:15:52.047Z,28.80
2017-08-19T18:18:22.663Z,28.70
2017-08-19T18:20:53.163Z,28.60
2017-08-19T18:23:23.691Z,28.40
2017-08-19T18:25:54.107Z,28.30
2017-08-19T18:28:24.664Z,28.20
2017-08-19T18:30:54.961Z,28.10
2017-08-19T18:33:25.381Z,28.10
2017-08-19T18:35:55.864Z,28.20
2017-08-19T18:38:27.417Z,28.30
2017-08-19T18:40:57.899Z,28.40
2017-08-19T18:43:28.415Z,28.50
2017-08-19T18:45:58.916Z,28.50
2017-08-19T18:48:30.138Z,28.40
2017-08-19T18:51:00.641Z,28.30
2017-08-19T18:53:31.038Z,28.30
2017-08-19T18:56:01.605Z,28.30
2017-08-19T18:58:31.985Z,28.30
2017-08-19T19:01:03.267Z,28.40
2017-08-19T19:03:33.709Z,28.50
2017-08-19T19:06:04.141Z,28.50
2017-08-19T19:08:34.630Z,28.60
2017-08-19T19:11:05.146Z,28.70
2017-08-19T19:13:36.435Z,28.40
2017-08-19T19:16:07.056Z,28.40
2017-08-19T19:18:37.379Z,28.30
2017-08-19T19:21:07.861Z,28.20
2017-08-19T19:23:38.438Z,28.00
2017-08-19T19:26:08.911Z,27.90
2017-08-19T19:28:39.282Z,27.90
2017-08-19T19:31:10.382Z,28.00
2017-08-19T19:33:40.691Z,27.90
2017-08-19T19:36:10.981Z,27.90
2017-08-19T19:38:42.700Z,28.10
2017-08-19T19:41:13.291Z,28.10
2017-08-19T19:43:43.799Z,28.20
2017-08-19T19:46:15.042Z,28.40
2017-08-19T19:48:46.329Z,28.40
2017-08-19T19:51:16.749Z,28.40
2017-08-19T19:53:47.376Z,28.20
2017-08-19T19:56:18.014Z,28.10
2017-08-19T19:58:48.435Z,28.00
2017-08-19T20:01:18.922Z,28.00
2017-08-19T20:03:49.478Z,28.00
2017-08-19T20:06:20.651Z,28.00
2017-08-19T20:08:51.036Z,28.00
2017-08-19T20:11:21.552Z,27.90
2017-08-19T20:13:51.764Z,27.90
2017-08-19T20:16:22.188Z,28.00
2017-08-19T20:18:52.601Z,28.10
2017-08-19T20:21:23.020Z,28.20
2017-08-19T20:23:53.858Z,28.20
2017-08-19T20:26:24.820Z,28.30
2017-08-19T20:28:55.233Z,28.20
2017-08-19T20:31:25.688Z,28.20
2017-08-19T20:33:56.252Z,28.20
2017-08-19T20:36:27.330Z,28.10
2017-08-19T20:38:58.405Z,28.10
2017-08-19T20:41:28.807Z,28.00
2017-08-19T20:43:59.247Z,27.90
2017-08-19T20:46:29.539Z,27.70
2017-08-19T20:49:00.067Z,27.70
2017-08-19T20:51:30.651Z,27.70
2017-08-19T20:54:01.228Z,27.70
2017-08-19T20:56:32.502Z,27.80
2017-08-19T20:59:03.087Z,27.70
2017-08-19T21:01:33.476Z,27.90
2017-08-19T21:04:04.110Z,28.00
2017-08-19T21:06:34.320Z,28.20
2017-08-19T21:09:04.848Z,28.30
2017-08-19T21:11:35.281Z,28.20
2017-08-19T21:14:05.796Z,28.00
2017-08-19T21:16:36.289Z,27.90
2017-08-19T21:19:06.816Z,27.80
2017-08-19T21:21:37.312Z,27.80
2017-08-19T21:24:07.870Z,27.80
2017-08-19T21:26:38.308Z,27.80
2017-08-19T21:29:08.980Z,27.80
2017-08-19T21:31:39.316Z,27.80
2017-08-19T21:34:09.859Z,27.90
2017-08-19T21:36:40.258Z,28.00
2017-08-19T21:39:10.944Z,28.10
2017-08-19T21:41:41.310Z,28.10
2017-08-19T21:44:12.477Z,28.10
2017-08-19T21:46:42.948Z,28.20
2017-08-19T21:49:13.404Z,28.10
2017-08-19T21:51:43.855Z,28.10
2017-08-19T21:54:14.438Z,28.00
2017-08-19T21:56:45.029Z,27.90
2017-08-19T21:59:15.555Z,28.00
2017-08-19T22:01:46.099Z,28.00
2017-08-19T22:04:16.724Z,28.00
2017-08-19T22:06:47.223Z,28.00
2017-08-19T22:09:17.746Z,28.10
2017-08-19T22:11:48.094Z,28.20
2017-08-19T22:14:19.394Z,28.30
2017-08-19T22:16:49.926Z,28.30
2017-08-19T22:19:20.248Z,28.30
2017-08-19T22:21:50.731Z,28.20
2017-08-19T22:24:21.952Z,28.10
2017-08-19T22:26:52.142Z,28.10
2017-08-19T22:29:22.737Z,28.00
2017-08-19T22:31:53.328Z,28.00
2017-08-19T22:34:23.782Z,28.10
2017-08-19T22:36:54.981Z,27.90
2017-08-19T22:39:25.816Z,27.90
2017-08-19T22:41:56.206Z,27.90
2017-08-19T22:44:27.359Z,28.10
2017-08-19T22:46:57.713Z,28.10
2017-08-19T22:49:28.233Z,28.20
2017-08-19T22:51:58.804Z,28.00
2017-08-19T22:54:29.369Z,27.90
2017-08-19T22:57:00.621Z,27.90
2017-08-19T22:59:31.105Z,27.80
2017-08-19T23:02:01.667Z,27.80
2017-08-19T23:04:32.758Z,27.80
2017-08-19T23:07:03.251Z,27.90
2017-08-19T23:09:34.470Z,27.60
2017-08-19T23:12:04.833Z,27.60
2017-08-19T23:14:35.245Z,27.60
2017-08-19T23:17:06.728Z,27.60
2017-08-19T23:19:37.251Z,27.60
2017-08-19T23:22:07.696Z,27.70
2017-08-19T23:24:38.119Z,27.80
2017-08-19T23:27:08.692Z,28.00
2017-08-19T23:29:39.217Z,28.10
2017-08-19T23:32:09.604Z,28.00
2017-08-19T23:34:40.037Z,27.90
2017-08-19T23:37:10.536Z,27.80
2017-08-19T23:39:42.103Z,27.80
2017-08-19T23:42:13.179Z,27.80
2017-08-19T23:44:43.760Z,27.80
2017-08-19T23:47:14.443Z,27.80
2017-08-19T23:49:45.056Z,27.80
2017-08-19T23:52:15.717Z,27.70
2017-08-19T23:54:46.354Z,27.60
2017-08-19T23:57:16.835Z,27.60
2017-08-19T23:59:48.194Z,27.60
